Current Conditions
Partly Cloudy
Conditions



Pressure
1021.92 (hPa) - 30.18 (inHG)
Visibility

10.0 (km) - 6.2 (miles)
Temperature
8  °C
Temperature
3  °C
Dewpoint
71  %
 Humidity
Wind Speed
3.6  m/s
8  mph
13  km/h
7  kts
Wind Direction
N
45°
E
90°
135°
S
180°
225°
W
270°
315°
 30°

North North
East
Airport Data
EFHK
Helsinki Vantaa Airport
Metar :EFHK 211220Z 03007KT 360V060 9999 FEW020 08/03 Q1022 NOSIG
Tue 21st September 15:20 pm
Raw Metar Info
Raw METAR is the most common format in the world for the transmission of observational weather data. It is highly standardized through the International Civil Aviation Organization (ICAO), which allows it to be understood throughout most of the world.
API Info
Data Provided by
https://www.checkwx.com/weather/EFHK

Aviation Weather providing METAR, TAF, AIRMET, SIGMET and OUTLOOK Weather Reports
© Info
CSS/SVG/PHP scripts were developed by weather34.com for use in the weather34 template © 2015-2021

Guide Info provided by Metar-Wikipedia